sensor_id;sensor_type;location;lat;lon;timestamp;P1;durP1;ratioP1;P2;durP2;ratioP2
68866;SDS011;56451;44.804;20.476;2023-06-24T00:02:12;7.40;;;3.47;;
68866;SDS011;56451;44.804;20.476;2023-06-24T00:04:38;7.70;;;3.67;;
68866;SDS011;56451;44.804;20.476;2023-06-24T00:07:04;8.98;;;4.07;;
68866;SDS011;56451;44.804;20.476;2023-06-24T00:09:30;10.63;;;4.05;;
68866;SDS011;56451;44.804;20.476;2023-06-24T00:11:57;12.25;;;4.40;;
68866;SDS011;56451;44.804;20.476;2023-06-24T00:14:26;8.80;;;4.00;;
68866;SDS011;56451;44.804;20.476;2023-06-24T00:16:53;10.77;;;4.20;;
68866;SDS011;56451;44.804;20.476;2023-06-24T00:19:20;10.90;;;4.50;;
68866;SDS011;56451;44.804;20.476;2023-06-24T00:21:47;11.70;;;4.40;;
68866;SDS011;56451;44.804;20.476;2023-06-24T00:24:20;11.32;;;4.78;;
68866;SDS011;56451;44.804;20.476;2023-06-24T00:26:51;9.60;;;4.60;;
68866;SDS011;56451;44.804;20.476;2023-06-24T00:29:18;7.68;;;4.00;;
68866;SDS011;56451;44.804;20.476;2023-06-24T00:31:44;8.25;;;4.53;;
68866;SDS011;56451;44.804;20.476;2023-06-24T00:34:10;10.25;;;4.10;;
68866;SDS011;56451;44.804;20.476;2023-06-24T00:36:36;9.47;;;3.87;;
68866;SDS011;56451;44.804;20.476;2023-06-24T00:39:03;9.50;;;4.35;;
68866;SDS011;56451;44.804;20.476;2023-06-24T00:41:29;9.73;;;3.90;;
68866;SDS011;56451;44.804;20.476;2023-06-24T00:43:56;7.72;;;4.03;;
68866;SDS011;56451;44.804;20.476;2023-06-24T00:46:24;7.97;;;3.47;;
68866;SDS011;56451;44.804;20.476;2023-06-24T00:48:59;10.40;;;3.97;;
68866;SDS011;56451;44.804;20.476;2023-06-24T00:51:28;7.63;;;3.22;;
68866;SDS011;56451;44.804;20.476;2023-06-24T00:53:59;12.05;;;4.28;;
68866;SDS011;56451;44.804;20.476;2023-06-24T00:56:27;9.95;;;3.05;;
68866;SDS011;56451;44.804;20.476;2023-06-24T00:58:56;10.63;;;3.22;;
68866;SDS011;56451;44.804;20.476;2023-06-24T01:01:28;8.03;;;2.80;;
68866;SDS011;56451;44.804;20.476;2023-06-24T01:03:59;10.40;;;3.63;;
68866;SDS011;56451;44.804;20.476;2023-06-24T01:06:26;7.28;;;3.60;;
68866;SDS011;56451;44.804;20.476;2023-06-24T01:08:57;7.90;;;3.50;;
68866;SDS011;56451;44.804;20.476;2023-06-24T01:11:28;11.27;;;3.20;;
68866;SDS011;56451;44.804;20.476;2023-06-24T01:13:55;6.97;;;3.13;;
68866;SDS011;56451;44.804;20.476;2023-06-24T01:33:32;11.82;;;3.83;;
68866;SDS011;56451;44.804;20.476;2023-06-24T01:36:08;9.18;;;3.60;;
68866;SDS011;56451;44.804;20.476;2023-06-24T01:38:40;9.80;;;3.65;;
68866;SDS011;56451;44.804;20.476;2023-06-24T01:41:11;8.80;;;4.07;;
68866;SDS011;56451;44.804;20.476;2023-06-24T01:43:42;6.53;;;3.90;;
68866;SDS011;56451;44.804;20.476;2023-06-24T01:46:08;10.75;;;4.10;;
68866;SDS011;56451;44.804;20.476;2023-06-24T01:48:37;13.90;;;4.40;;
68866;SDS011;56451;44.804;20.476;2023-06-24T01:51:08;8.25;;;4.28;;
68866;SDS011;56451;44.804;20.476;2023-06-24T01:53:42;12.83;;;4.60;;
68866;SDS011;56451;44.804;20.476;2023-06-24T01:56:12;9.68;;;4.15;;
68866;SDS011;56451;44.804;20.476;2023-06-24T01:58:41;11.48;;;4.47;;
68866;SDS011;56451;44.804;20.476;2023-06-24T02:01:10;8.90;;;4.40;;
68866;SDS011;56451;44.804;20.476;2023-06-24T02:03:38;10.65;;;4.97;;
68866;SDS011;56451;44.804;20.476;2023-06-24T02:06:06;10.27;;;4.83;;
68866;SDS011;56451;44.804;20.476;2023-06-24T02:08:35;11.88;;;4.25;;
68866;SDS011;56451;44.804;20.476;2023-06-24T02:11:05;12.20;;;6.07;;
68866;SDS011;56451;44.804;20.476;2023-06-24T02:13:33;12.70;;;4.45;;
68866;SDS011;56451;44.804;20.476;2023-06-24T02:16:02;8.77;;;4.20;;
68866;SDS011;56451;44.804;20.476;2023-06-24T02:18:31;10.97;;;4.80;;
68866;SDS011;56451;44.804;20.476;2023-06-24T02:20:58;12.57;;;4.20;;
68866;SDS011;56451;44.804;20.476;2023-06-24T02:23:25;13.80;;;4.10;;
68866;SDS011;56451;44.804;20.476;2023-06-24T02:25:53;14.60;;;4.57;;
68866;SDS011;56451;44.804;20.476;2023-06-24T02:28:19;10.68;;;4.20;;
68866;SDS011;56451;44.804;20.476;2023-06-24T02:33:40;10.95;;;5.10;;
68866;SDS011;56451;44.804;20.476;2023-06-24T02:36:06;11.10;;;4.70;;
68866;SDS011;56451;44.804;20.476;2023-06-24T02:38:34;10.13;;;3.83;;
68866;SDS011;56451;44.804;20.476;2023-06-24T02:41:00;12.00;;;4.20;;
68866;SDS011;56451;44.804;20.476;2023-06-24T02:43:29;11.93;;;4.27;;
68866;SDS011;56451;44.804;20.476;2023-06-24T02:45:56;8.40;;;4.40;;
68866;SDS011;56451;44.804;20.476;2023-06-24T02:48:25;11.27;;;4.60;;
68866;SDS011;56451;44.804;20.476;2023-06-24T02:50:53;11.40;;;4.38;;
68866;SDS011;56451;44.804;20.476;2023-06-24T02:53:19;13.80;;;4.50;;
68866;SDS011;56451;44.804;20.476;2023-06-24T02:55:47;9.43;;;3.50;;
68866;SDS011;56451;44.804;20.476;2023-06-24T02:58:14;10.15;;;3.85;;
68866;SDS011;56451;44.804;20.476;2023-06-24T03:01:02;10.85;;;4.30;;
68866;SDS011;56451;44.804;20.476;2023-06-24T03:03:43;12.88;;;4.57;;
68866;SDS011;56451;44.804;20.476;2023-06-24T03:06:14;9.52;;;4.38;;
68866;SDS011;56451;44.804;20.476;2023-06-24T03:08:44;10.33;;;4.20;;
68866;SDS011;56451;44.804;20.476;2023-06-24T03:11:14;9.48;;;4.40;;
68866;SDS011;56451;44.804;20.476;2023-06-24T03:13:41;10.77;;;3.72;;
68866;SDS011;56451;44.804;20.476;2023-06-24T03:16:14;11.05;;;4.47;;
68866;SDS011;56451;44.804;20.476;2023-06-24T03:18:49;12.18;;;4.30;;
68866;SDS011;56451;44.804;20.476;2023-06-24T03:21:16;11.40;;;4.00;;
68866;SDS011;56451;44.804;20.476;2023-06-24T03:23:43;9.57;;;4.15;;
68866;SDS011;56451;44.804;20.476;2023-06-24T03:26:11;10.27;;;3.90;;
68866;SDS011;56451;44.804;20.476;2023-06-24T03:28:37;9.02;;;4.05;;
68866;SDS011;56451;44.804;20.476;2023-06-24T03:31:09;7.20;;;4.18;;
68866;SDS011;56451;44.804;20.476;2023-06-24T03:33:37;9.87;;;3.63;;
68866;SDS011;56451;44.804;20.476;2023-06-24T03:36:04;10.38;;;4.47;;
68866;SDS011;56451;44.804;20.476;2023-06-24T03:38:33;9.57;;;3.78;;
68866;SDS011;56451;44.804;20.476;2023-06-24T03:40:59;9.82;;;4.05;;
68866;SDS011;56451;44.804;20.476;2023-06-24T03:43:26;8.27;;;4.20;;
68866;SDS011;56451;44.804;20.476;2023-06-24T03:45:51;9.70;;;3.67;;
68866;SDS011;56451;44.804;20.476;2023-06-24T03:48:18;6.25;;;3.60;;
68866;SDS011;56451;44.804;20.476;2023-06-24T03:50:44;13.57;;;4.50;;
68866;SDS011;56451;44.804;20.476;2023-06-24T03:53:10;7.20;;;3.70;;
68866;SDS011;56451;44.804;20.476;2023-06-24T03:55:37;8.23;;;3.75;;
68866;SDS011;56451;44.804;20.476;2023-06-24T03:58:04;7.38;;;3.50;;
68866;SDS011;56451;44.804;20.476;2023-06-24T04:00:30;7.85;;;3.15;;
68866;SDS011;56451;44.804;20.476;2023-06-24T04:02:56;6.97;;;3.83;;
68866;SDS011;56451;44.804;20.476;2023-06-24T04:05:26;7.20;;;3.55;;
68866;SDS011;56451;44.804;20.476;2023-06-24T04:07:52;10.23;;;3.55;;
68866;SDS011;56451;44.804;20.476;2023-06-24T04:10:19;10.38;;;3.50;;
68866;SDS011;56451;44.804;20.476;2023-06-24T04:12:45;7.30;;;3.63;;
68866;SDS011;56451;44.804;20.476;2023-06-24T04:15:11;8.65;;;3.58;;
68866;SDS011;56451;44.804;20.476;2023-06-24T04:17:37;9.23;;;3.63;;
68866;SDS011;56451;44.804;20.476;2023-06-24T04:20:03;8.18;;;3.45;;
68866;SDS011;56451;44.804;20.476;2023-06-24T04:22:33;5.63;;;3.60;;
68866;SDS011;56451;44.804;20.476;2023-06-24T04:24:59;7.38;;;3.70;;
68866;SDS011;56451;44.804;20.476;2023-06-24T04:27:25;7.47;;;3.35;;
68866;SDS011;56451;44.804;20.476;2023-06-24T04:29:51;7.03;;;3.70;;
68866;SDS011;56451;44.804;20.476;2023-06-24T04:32:17;7.80;;;3.87;;
68866;SDS011;56451;44.804;20.476;2023-06-24T04:34:43;5.00;;;3.70;;
68866;SDS011;56451;44.804;20.476;2023-06-24T04:37:09;9.63;;;3.60;;
68866;SDS011;56451;44.804;20.476;2023-06-24T04:39:36;10.35;;;4.20;;
68866;SDS011;56451;44.804;20.476;2023-06-24T04:42:02;7.05;;;3.90;;
68866;SDS011;56451;44.804;20.476;2023-06-24T04:44:28;8.33;;;4.13;;
68866;SDS011;56451;44.804;20.476;2023-06-24T04:46:54;6.20;;;3.90;;
68866;SDS011;56451;44.804;20.476;2023-06-24T04:49:20;7.63;;;3.97;;
68866;SDS011;56451;44.804;20.476;2023-06-24T04:51:46;7.00;;;4.10;;
68866;SDS011;56451;44.804;20.476;2023-06-24T04:54:12;8.55;;;4.30;;
68866;SDS011;56451;44.804;20.476;2023-06-24T04:56:38;8.23;;;4.93;;
68866;SDS011;56451;44.804;20.476;2023-06-24T04:59:08;10.43;;;4.90;;
68866;SDS011;56451;44.804;20.476;2023-06-24T05:01:34;9.43;;;4.87;;
68866;SDS011;56451;44.804;20.476;2023-06-24T05:04:00;6.82;;;4.43;;
68866;SDS011;56451;44.804;20.476;2023-06-24T05:06:26;10.20;;;5.22;;
68866;SDS011;56451;44.804;20.476;2023-06-24T05:08:52;8.53;;;4.77;;
68866;SDS011;56451;44.804;20.476;2023-06-24T05:11:18;6.88;;;4.82;;
68866;SDS011;56451;44.804;20.476;2023-06-24T05:13:43;10.93;;;5.43;;
68866;SDS011;56451;44.804;20.476;2023-06-24T05:16:10;7.83;;;5.03;;
68866;SDS011;56451;44.804;20.476;2023-06-24T05:18:36;8.57;;;5.60;;
68866;SDS011;56451;44.804;20.476;2023-06-24T05:21:02;9.35;;;5.70;;
68866;SDS011;56451;44.804;20.476;2023-06-24T05:23:27;10.23;;;5.22;;
68866;SDS011;56451;44.804;20.476;2023-06-24T05:25:53;11.87;;;5.30;;
68866;SDS011;56451;44.804;20.476;2023-06-24T05:28:19;12.77;;;5.80;;
68866;SDS011;56451;44.804;20.476;2023-06-24T05:30:45;10.00;;;5.47;;
68866;SDS011;56451;44.804;20.476;2023-06-24T05:33:11;9.30;;;5.37;;
68866;SDS011;56451;44.804;20.476;2023-06-24T05:35:37;8.13;;;5.65;;
68866;SDS011;56451;44.804;20.476;2023-06-24T05:38:06;8.60;;;5.68;;
68866;SDS011;56451;44.804;20.476;2023-06-24T05:40:32;12.45;;;6.05;;
68866;SDS011;56451;44.804;20.476;2023-06-24T05:42:59;10.57;;;5.80;;
68866;SDS011;56451;44.804;20.476;2023-06-24T05:45:26;9.48;;;5.50;;
68866;SDS011;56451;44.804;20.476;2023-06-24T05:47:52;9.82;;;5.28;;
68866;SDS011;56451;44.804;20.476;2023-06-24T05:50:18;8.70;;;5.60;;
68866;SDS011;56451;44.804;20.476;2023-06-24T05:52:44;8.63;;;5.90;;
68866;SDS011;56451;44.804;20.476;2023-06-24T05:55:09;10.20;;;5.43;;
68866;SDS011;56451;44.804;20.476;2023-06-24T05:57:35;9.48;;;5.95;;
68866;SDS011;56451;44.804;20.476;2023-06-24T06:00:02;9.25;;;5.35;;
68866;SDS011;56451;44.804;20.476;2023-06-24T06:02:37;7.60;;;5.40;;
68866;SDS011;56451;44.804;20.476;2023-06-24T06:05:04;10.38;;;5.20;;
68866;SDS011;56451;44.804;20.476;2023-06-24T06:07:30;11.38;;;5.75;;
68866;SDS011;56451;44.804;20.476;2023-06-24T06:09:56;9.93;;;5.90;;
68866;SDS011;56451;44.804;20.476;2023-06-24T06:12:22;9.33;;;5.33;;
68866;SDS011;56451;44.804;20.476;2023-06-24T06:14:48;9.82;;;5.85;;
68866;SDS011;56451;44.804;20.476;2023-06-24T06:17:14;11.50;;;5.88;;
68866;SDS011;56451;44.804;20.476;2023-06-24T06:19:40;10.13;;;5.55;;
68866;SDS011;56451;44.804;20.476;2023-06-24T06:22:07;7.50;;;5.17;;
68866;SDS011;56451;44.804;20.476;2023-06-24T06:24:33;9.90;;;5.47;;
68866;SDS011;56451;44.804;20.476;2023-06-24T06:26:59;12.45;;;5.38;;
68866;SDS011;56451;44.804;20.476;2023-06-24T06:29:25;8.48;;;4.80;;
68866;SDS011;56451;44.804;20.476;2023-06-24T06:31:51;8.57;;;5.13;;
68866;SDS011;56451;44.804;20.476;2023-06-24T06:34:18;8.02;;;4.57;;
68866;SDS011;56451;44.804;20.476;2023-06-24T06:36:44;7.70;;;5.20;;
68866;SDS011;56451;44.804;20.476;2023-06-24T06:39:10;9.48;;;5.50;;
68866;SDS011;56451;44.804;20.476;2023-06-24T06:41:36;9.40;;;4.77;;
68866;SDS011;56451;44.804;20.476;2023-06-24T06:44:02;13.00;;;5.07;;
68866;SDS011;56451;44.804;20.476;2023-06-24T06:46:28;10.27;;;5.50;;
68866;SDS011;56451;44.804;20.476;2023-06-24T06:48:53;12.82;;;5.20;;
68866;SDS011;56451;44.804;20.476;2023-06-24T06:51:19;11.50;;;6.00;;
68866;SDS011;56451;44.804;20.476;2023-06-24T06:53:45;10.07;;;5.95;;
68866;SDS011;56451;44.804;20.476;2023-06-24T06:56:44;7.72;;;6.05;;
68866;SDS011;56451;44.804;20.476;2023-06-24T06:59:03;10.23;;;5.73;;
68866;SDS011;56451;44.804;20.476;2023-06-24T07:01:29;11.68;;;6.72;;
68866;SDS011;56451;44.804;20.476;2023-06-24T07:03:55;9.23;;;6.25;;
68866;SDS011;56451;44.804;20.476;2023-06-24T07:06:21;13.40;;;6.00;;
68866;SDS011;56451;44.804;20.476;2023-06-24T07:08:47;8.73;;;5.00;;
68866;SDS011;56451;44.804;20.476;2023-06-24T07:11:13;9.93;;;4.93;;
68866;SDS011;56451;44.804;20.476;2023-06-24T07:13:39;8.15;;;5.82;;
68866;SDS011;56451;44.804;20.476;2023-06-24T07:16:05;7.53;;;5.07;;
68866;SDS011;56451;44.804;20.476;2023-06-24T07:18:31;9.40;;;5.80;;
68866;SDS011;56451;44.804;20.476;2023-06-24T07:21:00;7.70;;;5.45;;
68866;SDS011;56451;44.804;20.476;2023-06-24T07:23:26;8.00;;;5.43;;
68866;SDS011;56451;44.804;20.476;2023-06-24T07:25:52;9.77;;;5.35;;
68866;SDS011;56451;44.804;20.476;2023-06-24T07:28:18;7.13;;;5.35;;
68866;SDS011;56451;44.804;20.476;2023-06-24T07:30:44;7.73;;;5.50;;
68866;SDS011;56451;44.804;20.476;2023-06-24T07:33:10;8.43;;;5.35;;
68866;SDS011;56451;44.804;20.476;2023-06-24T07:35:36;7.57;;;5.63;;
68866;SDS011;56451;44.804;20.476;2023-06-24T07:38:02;8.43;;;5.53;;
68866;SDS011;56451;44.804;20.476;2023-06-24T07:40:29;10.07;;;5.37;;
68866;SDS011;56451;44.804;20.476;2023-06-24T07:42:55;9.43;;;6.10;;
68866;SDS011;56451;44.804;20.476;2023-06-24T07:45:21;7.68;;;5.70;;
68866;SDS011;56451;44.804;20.476;2023-06-24T07:47:47;7.90;;;5.50;;
68866;SDS011;56451;44.804;20.476;2023-06-24T07:50:13;10.95;;;5.78;;
68866;SDS011;56451;44.804;20.476;2023-06-24T07:52:39;9.53;;;5.80;;
68866;SDS011;56451;44.804;20.476;2023-06-24T07:55:05;7.90;;;6.13;;
68866;SDS011;56451;44.804;20.476;2023-06-24T07:57:31;10.60;;;6.10;;
68866;SDS011;56451;44.804;20.476;2023-06-24T07:59:57;8.65;;;5.43;;
68866;SDS011;56451;44.804;20.476;2023-06-24T08:02:23;11.03;;;5.50;;
68866;SDS011;56451;44.804;20.476;2023-06-24T08:04:52;8.82;;;5.32;;
68866;SDS011;56451;44.804;20.476;2023-06-24T08:07:18;10.32;;;5.65;;
68866;SDS011;56451;44.804;20.476;2023-06-24T08:09:43;8.40;;;5.78;;
68866;SDS011;56451;44.804;20.476;2023-06-24T08:12:09;8.60;;;5.57;;
68866;SDS011;56451;44.804;20.476;2023-06-24T08:14:35;7.65;;;5.65;;
68866;SDS011;56451;44.804;20.476;2023-06-24T08:17:01;9.80;;;5.47;;
68866;SDS011;56451;44.804;20.476;2023-06-24T08:19:27;9.20;;;6.10;;
68866;SDS011;56451;44.804;20.476;2023-06-24T08:21:53;10.27;;;5.50;;
68866;SDS011;56451;44.804;20.476;2023-06-24T08:24:19;7.70;;;5.35;;
68866;SDS011;56451;44.804;20.476;2023-06-24T08:26:45;7.30;;;5.80;;
68866;SDS011;56451;44.804;20.476;2023-06-24T08:29:11;9.33;;;5.30;;
68866;SDS011;56451;44.804;20.476;2023-06-24T08:31:37;7.23;;;5.33;;
68866;SDS011;56451;44.804;20.476;2023-06-24T08:34:03;9.13;;;5.70;;
68866;SDS011;56451;44.804;20.476;2023-06-24T08:36:30;9.98;;;5.90;;
68866;SDS011;56451;44.804;20.476;2023-06-24T08:38:56;10.17;;;6.17;;
68866;SDS011;56451;44.804;20.476;2023-06-24T08:41:22;10.83;;;6.00;;
68866;SDS011;56451;44.804;20.476;2023-06-24T08:43:50;9.70;;;5.88;;
68866;SDS011;56451;44.804;20.476;2023-06-24T08:46:17;7.85;;;6.35;;
68866;SDS011;56451;44.804;20.476;2023-06-24T08:48:44;7.53;;;5.78;;
68866;SDS011;56451;44.804;20.476;2023-06-24T08:51:11;10.88;;;5.88;;
68866;SDS011;56451;44.804;20.476;2023-06-24T08:53:42;7.07;;;5.87;;
68866;SDS011;56451;44.804;20.476;2023-06-24T08:56:09;12.07;;;6.72;;
68866;SDS011;56451;44.804;20.476;2023-06-24T08:58:35;12.10;;;5.90;;
68866;SDS011;56451;44.804;20.476;2023-06-24T09:01:01;10.43;;;5.93;;
68866;SDS011;56451;44.804;20.476;2023-06-24T09:03:28;10.32;;;6.38;;
68866;SDS011;56451;44.804;20.476;2023-06-24T09:05:54;7.83;;;5.50;;
68866;SDS011;56451;44.804;20.476;2023-06-24T09:08:20;9.60;;;5.63;;
68866;SDS011;56451;44.804;20.476;2023-06-24T09:10:52;12.38;;;7.07;;
68866;SDS011;56451;44.804;20.476;2023-06-24T09:13:44;9.38;;;6.65;;
68866;SDS011;56451;44.804;20.476;2023-06-24T09:16:13;10.27;;;6.50;;
68866;SDS011;56451;44.804;20.476;2023-06-24T09:18:39;6.70;;;6.00;;
68866;SDS011;56451;44.804;20.476;2023-06-24T09:21:05;7.93;;;6.43;;
68866;SDS011;56451;44.804;20.476;2023-06-24T09:23:36;9.40;;;6.45;;
68866;SDS011;56451;44.804;20.476;2023-06-24T09:26:02;10.77;;;6.50;;
68866;SDS011;56451;44.804;20.476;2023-06-24T09:28:28;9.55;;;6.50;;
68866;SDS011;56451;44.804;20.476;2023-06-24T09:31:07;9.95;;;6.63;;
68866;SDS011;56451;44.804;20.476;2023-06-24T09:33:34;13.10;;;6.47;;
68866;SDS011;56451;44.804;20.476;2023-06-24T09:36:03;10.52;;;6.38;;
68866;SDS011;56451;44.804;20.476;2023-06-24T09:38:36;9.60;;;6.72;;
68866;SDS011;56451;44.804;20.476;2023-06-24T09:41:04;10.57;;;6.13;;
68866;SDS011;56451;44.804;20.476;2023-06-24T09:43:35;13.07;;;7.30;;
68866;SDS011;56451;44.804;20.476;2023-06-24T09:46:05;12.23;;;6.20;;
68866;SDS011;56451;44.804;20.476;2023-06-24T09:48:34;13.38;;;6.47;;
68866;SDS011;56451;44.804;20.476;2023-06-24T09:51:02;9.00;;;6.88;;
68866;SDS011;56451;44.804;20.476;2023-06-24T09:53:32;12.52;;;7.82;;
68866;SDS011;56451;44.804;20.476;2023-06-24T09:56:00;12.10;;;7.43;;
68866;SDS011;56451;44.804;20.476;2023-06-24T09:58:30;12.80;;;7.30;;
68866;SDS011;56451;44.804;20.476;2023-06-24T10:01:01;10.50;;;7.38;;
68866;SDS011;56451;44.804;20.476;2023-06-24T10:03:29;9.15;;;7.63;;
68866;SDS011;56451;44.804;20.476;2023-06-24T10:05:57;13.43;;;7.90;;
68866;SDS011;56451;44.804;20.476;2023-06-24T10:08:24;12.38;;;7.22;;
68866;SDS011;56451;44.804;20.476;2023-06-24T10:10:49;8.50;;;6.73;;
68866;SDS011;56451;44.804;20.476;2023-06-24T10:13:15;10.35;;;6.95;;
68866;SDS011;56451;44.804;20.476;2023-06-24T10:15:41;11.57;;;7.75;;
68866;SDS011;56451;44.804;20.476;2023-06-24T10:21:01;12.00;;;8.25;;
68866;SDS011;56451;44.804;20.476;2023-06-24T10:23:40;12.43;;;7.95;;
68866;SDS011;56451;44.804;20.476;2023-06-24T10:26:07;11.32;;;8.85;;
68866;SDS011;56451;44.804;20.476;2023-06-24T10:37:01;12.82;;;8.07;;
68866;SDS011;56451;44.804;20.476;2023-06-24T10:39:35;11.63;;;7.72;;
68866;SDS011;56451;44.804;20.476;2023-06-24T10:42:38;14.45;;;8.52;;
68866;SDS011;56451;44.804;20.476;2023-06-24T10:47:35;17.23;;;9.10;;
68866;SDS011;56451;44.804;20.476;2023-06-24T10:50:04;14.90;;;8.75;;
68866;SDS011;56451;44.804;20.476;2023-06-24T10:52:31;15.98;;;10.25;;
68866;SDS011;56451;44.804;20.476;2023-06-24T10:54:58;18.98;;;10.50;;
68866;SDS011;56451;44.804;20.476;2023-06-24T10:57:25;19.80;;;10.67;;
68866;SDS011;56451;44.804;20.476;2023-06-24T10:59:53;13.23;;;10.35;;
68866;SDS011;56451;44.804;20.476;2023-06-24T11:02:21;20.98;;;10.52;;
68866;SDS011;56451;44.804;20.476;2023-06-24T11:04:54;20.45;;;11.20;;
68866;SDS011;56451;44.804;20.476;2023-06-24T11:07:25;13.27;;;9.98;;
68866;SDS011;56451;44.804;20.476;2023-06-24T11:10:07;14.93;;;10.20;;
68866;SDS011;56451;44.804;20.476;2023-06-24T11:12:34;14.75;;;9.15;;
68866;SDS011;56451;44.804;20.476;2023-06-24T11:15:03;12.25;;;9.02;;
68866;SDS011;56451;44.804;20.476;2023-06-24T11:17:30;13.82;;;9.95;;
68866;SDS011;56451;44.804;20.476;2023-06-24T11:19:57;15.75;;;9.70;;
68866;SDS011;56451;44.804;20.476;2023-06-24T11:22:24;15.90;;;9.77;;
68866;SDS011;56451;44.804;20.476;2023-06-24T11:24:51;15.98;;;10.60;;
68866;SDS011;56451;44.804;20.476;2023-06-24T11:27:24;17.23;;;10.63;;
68866;SDS011;56451;44.804;20.476;2023-06-24T11:29:54;14.93;;;9.15;;
68866;SDS011;56451;44.804;20.476;2023-06-24T11:32:20;12.55;;;8.85;;
68866;SDS011;56451;44.804;20.476;2023-06-24T11:34:47;12.77;;;8.93;;
68866;SDS011;56451;44.804;20.476;2023-06-24T11:37:15;12.05;;;8.38;;
68866;SDS011;56451;44.804;20.476;2023-06-24T11:39:42;14.55;;;9.10;;
68866;SDS011;56451;44.804;20.476;2023-06-24T11:42:09;12.07;;;8.52;;
68866;SDS011;56451;44.804;20.476;2023-06-24T11:44:42;13.93;;;9.07;;
68866;SDS011;56451;44.804;20.476;2023-06-24T11:47:09;15.23;;;8.80;;
68866;SDS011;56451;44.804;20.476;2023-06-24T11:49:49;11.13;;;8.93;;
68866;SDS011;56451;44.804;20.476;2023-06-24T11:52:17;13.15;;;9.10;;
68866;SDS011;56451;44.804;20.476;2023-06-24T11:54:43;12.80;;;9.43;;
68866;SDS011;56451;44.804;20.476;2023-06-24T11:57:09;14.47;;;9.03;;
68866;SDS011;56451;44.804;20.476;2023-06-24T11:59:35;14.90;;;10.13;;
68866;SDS011;56451;44.804;20.476;2023-06-24T12:02:01;16.67;;;10.35;;
68866;SDS011;56451;44.804;20.476;2023-06-24T12:04:29;17.42;;;10.65;;
68866;SDS011;56451;44.804;20.476;2023-06-24T12:06:56;18.67;;;10.55;;
68866;SDS011;56451;44.804;20.476;2023-06-24T12:09:23;19.53;;;10.87;;
68866;SDS011;56451;44.804;20.476;2023-06-24T12:11:49;22.95;;;9.77;;
68866;SDS011;56451;44.804;20.476;2023-06-24T12:14:15;18.90;;;11.07;;
68866;SDS011;56451;44.804;20.476;2023-06-24T12:16:41;18.67;;;11.57;;
68866;SDS011;56451;44.804;20.476;2023-06-24T12:19:07;23.77;;;11.03;;
68866;SDS011;56451;44.804;20.476;2023-06-24T12:21:34;14.55;;;10.90;;
68866;SDS011;56451;44.804;20.476;2023-06-24T12:24:00;15.95;;;10.80;;
68866;SDS011;56451;44.804;20.476;2023-06-24T12:26:27;17.55;;;11.43;;
68866;SDS011;56451;44.804;20.476;2023-06-24T12:28:56;18.27;;;11.47;;
68866;SDS011;56451;44.804;20.476;2023-06-24T12:31:23;16.77;;;11.48;;
68866;SDS011;56451;44.804;20.476;2023-06-24T12:33:50;14.18;;;11.30;;
68866;SDS011;56451;44.804;20.476;2023-06-24T12:36:17;16.98;;;12.77;;
68866;SDS011;56451;44.804;20.476;2023-06-24T12:38:46;16.58;;;11.45;;
68866;SDS011;56451;44.804;20.476;2023-06-24T12:41:12;15.17;;;10.33;;
68866;SDS011;56451;44.804;20.476;2023-06-24T12:43:38;17.70;;;8.98;;
68866;SDS011;56451;44.804;20.476;2023-06-24T12:46:04;15.65;;;9.93;;
68866;SDS011;56451;44.804;20.476;2023-06-24T12:48:30;17.10;;;10.13;;
68866;SDS011;56451;44.804;20.476;2023-06-24T12:50:56;16.08;;;10.60;;
68866;SDS011;56451;44.804;20.476;2023-06-24T12:53:22;14.27;;;11.23;;
68866;SDS011;56451;44.804;20.476;2023-06-24T12:55:48;14.73;;;10.77;;
68866;SDS011;56451;44.804;20.476;2023-06-24T12:58:14;15.57;;;10.40;;
68866;SDS011;56451;44.804;20.476;2023-06-24T13:00:44;12.85;;;9.82;;
68866;SDS011;56451;44.804;20.476;2023-06-24T13:03:10;13.47;;;9.23;;
68866;SDS011;56451;44.804;20.476;2023-06-24T13:05:36;16.90;;;9.87;;
68866;SDS011;56451;44.804;20.476;2023-06-24T13:08:02;12.50;;;9.07;;
68866;SDS011;56451;44.804;20.476;2023-06-24T13:10:28;10.90;;;8.73;;
68866;SDS011;56451;44.804;20.476;2023-06-24T13:12:54;13.03;;;9.43;;
68866;SDS011;56451;44.804;20.476;2023-06-24T13:15:21;11.13;;;8.50;;
68866;SDS011;56451;44.804;20.476;2023-06-24T13:17:47;11.60;;;9.00;;
68866;SDS011;56451;44.804;20.476;2023-06-24T13:20:13;9.60;;;7.70;;
68866;SDS011;56451;44.804;20.476;2023-06-24T13:22:39;10.73;;;8.13;;
68866;SDS011;56451;44.804;20.476;2023-06-24T13:25:05;10.67;;;8.13;;
68866;SDS011;56451;44.804;20.476;2023-06-24T13:27:31;10.27;;;8.32;;
68866;SDS011;56451;44.804;20.476;2023-06-24T13:29:57;11.88;;;9.73;;
68866;SDS011;56451;44.804;20.476;2023-06-24T13:32:23;15.47;;;8.33;;
68866;SDS011;56451;44.804;20.476;2023-06-24T13:34:49;12.40;;;9.32;;
68866;SDS011;56451;44.804;20.476;2023-06-24T13:37:15;13.00;;;9.40;;
68866;SDS011;56451;44.804;20.476;2023-06-24T13:39:41;11.93;;;10.02;;
68866;SDS011;56451;44.804;20.476;2023-06-24T13:42:07;14.63;;;9.47;;
68866;SDS011;56451;44.804;20.476;2023-06-24T13:44:33;10.40;;;7.77;;
68866;SDS011;56451;44.804;20.476;2023-06-24T13:46:59;14.20;;;7.60;;
68866;SDS011;56451;44.804;20.476;2023-06-24T13:49:26;12.65;;;8.82;;
68866;SDS011;56451;44.804;20.476;2023-06-24T13:51:52;10.75;;;7.43;;
68866;SDS011;56451;44.804;20.476;2023-06-24T13:54:18;17.07;;;6.97;;
68866;SDS011;56451;44.804;20.476;2023-06-24T13:56:44;9.65;;;7.72;;
68866;SDS011;56451;44.804;20.476;2023-06-24T13:59:10;10.13;;;7.88;;
68866;SDS011;56451;44.804;20.476;2023-06-24T14:01:36;10.40;;;7.10;;
68866;SDS011;56451;44.804;20.476;2023-06-24T14:04:02;9.43;;;6.63;;
68866;SDS011;56451;44.804;20.476;2023-06-24T14:06:28;15.23;;;7.27;;
68866;SDS011;56451;44.804;20.476;2023-06-24T14:08:54;11.77;;;8.13;;
68866;SDS011;56451;44.804;20.476;2023-06-24T14:11:20;9.77;;;7.32;;
68866;SDS011;56451;44.804;20.476;2023-06-24T14:13:46;9.05;;;6.68;;
68866;SDS011;56451;44.804;20.476;2023-06-24T14:16:12;9.27;;;6.93;;
68866;SDS011;56451;44.804;20.476;2023-06-24T14:18:39;7.32;;;5.50;;
68866;SDS011;56451;44.804;20.476;2023-06-24T14:21:05;6.30;;;5.40;;
68866;SDS011;56451;44.804;20.476;2023-06-24T14:23:32;6.15;;;4.57;;
68866;SDS011;56451;44.804;20.476;2023-06-24T14:25:58;8.77;;;4.57;;
68866;SDS011;56451;44.804;20.476;2023-06-24T14:28:25;10.40;;;4.50;;
68866;SDS011;56451;44.804;20.476;2023-06-24T14:30:51;9.68;;;5.00;;
68866;SDS011;56451;44.804;20.476;2023-06-24T14:33:17;8.57;;;4.88;;
68866;SDS011;56451;44.804;20.476;2023-06-24T14:35:44;7.13;;;5.05;;
68866;SDS011;56451;44.804;20.476;2023-06-24T14:38:10;8.15;;;4.60;;
68866;SDS011;56451;44.804;20.476;2023-06-24T14:40:36;6.33;;;4.60;;
68866;SDS011;56451;44.804;20.476;2023-06-24T14:43:02;6.85;;;4.40;;
68866;SDS011;56451;44.804;20.476;2023-06-24T14:45:27;7.57;;;4.40;;
68866;SDS011;56451;44.804;20.476;2023-06-24T14:47:53;10.93;;;4.97;;
68866;SDS011;56451;44.804;20.476;2023-06-24T14:50:20;8.40;;;4.65;;
68866;SDS011;56451;44.804;20.476;2023-06-24T14:52:46;7.20;;;5.03;;
68866;SDS011;56451;44.804;20.476;2023-06-24T14:55:12;7.78;;;4.75;;
68866;SDS011;56451;44.804;20.476;2023-06-24T14:57:38;6.63;;;4.70;;
68866;SDS011;56451;44.804;20.476;2023-06-24T15:00:07;5.47;;;4.32;;
68866;SDS011;56451;44.804;20.476;2023-06-24T15:02:34;8.23;;;4.50;;